Time;durP1;ratioP1;P1;durP2;ratioP2;P2;SDS_P1;SDS_P2;PMS_P1;PMS_P2;Temp;Humidity;BMP_temperature;BMP_pressure;BME280_temperature;BME280_humidity;BME280_pressure;Samples;Min_cycle;Max_cycle;Signal;HPM_P1;HPM_P2
2022/08/06 00:00:58;;;;;;;2.85;2.65;;;23.40;48.10;;;;;;5057811;28;20181;-86
2022/08/06 00:03:24;;;;;;;2.90;2.70;;;23.40;47.10;;;;;;5050992;28;20188;-87
2022/08/06 00:05:50;;;;;;;3.00;2.80;;;23.40;47.40;;;;;;5051839;28;20201;-87
2022/08/06 00:08:16;;;;;;;3.00;2.80;;;23.60;47.20;;;;;;5057119;28;20281;-86
2022/08/06 00:10:42;;;;;;;3.10;2.90;;;23.50;46.80;;;;;;5058674;28;20203;-86
2022/08/06 00:13:08;;;;;;;3.15;2.95;;;23.50;47.00;;;;;;5045302;28;20270;-86
2022/08/06 00:15:34;;;;;;;3.00;2.80;;;23.50;46.90;;;;;;5048933;28;20189;-86
2022/08/06 00:18:00;;;;;;;3.88;2.70;;;23.50;47.20;;;;;;5048594;28;20272;-86
2022/08/06 00:20:26;;;;;;;3.25;2.97;;;23.30;47.60;;;;;;5054037;28;20184;-86
2022/08/06 00:22:52;;;;;;;2.97;2.78;;;23.30;47.60;;;;;;5053881;28;20200;-86
2022/08/06 00:25:17;;;;;;;3.42;3.22;;;23.30;47.60;;;;;;5055464;28;20189;-86
2022/08/06 00:27:43;;;;;;;3.15;2.83;;;23.10;47.80;;;;;;5055770;28;20849;-85
2022/08/06 00:30:10;;;;;;;3.05;2.83;;;23.30;47.20;;;;;;5040768;28;20224;-86
2022/08/06 00:32:36;;;;;;;3.15;2.90;;;23.20;47.60;;;;;;5058821;28;20192;-87
2022/08/06 00:35:01;;;;;;;2.85;2.65;;;23.30;47.70;;;;;;5077621;28;20252;-87
2022/08/06 00:37:28;;;;;;;3.03;2.83;;;23.50;47.00;;;;;;5068865;28;20168;-87
2022/08/06 00:39:55;;;;;;;2.95;2.75;;;23.40;47.10;;;;;;5073393;28;20210;-87
2022/08/06 00:42:21;;;;;;;3.28;2.70;;;23.40;47.90;;;;;;5066315;28;20230;-87
2022/08/06 00:44:47;;;;;;;3.00;2.80;;;23.40;47.60;;;;;;5062093;28;20854;-87
2022/08/06 00:47:13;;;;;;;3.25;2.80;;;23.20;47.40;;;;;;5038032;28;20185;-87
2022/08/06 00:49:38;;;;;;;3.55;3.03;;;23.20;47.70;;;;;;5052061;28;20201;-87
2022/08/06 00:52:04;;;;;;;5.35;3.20;;;23.30;47.80;;;;;;5055622;28;20288;-87
2022/08/06 00:54:30;;;;;;;3.15;2.95;;;23.50;47.90;;;;;;5042173;28;20204;-87
2022/08/06 00:56:56;;;;;;;3.08;2.88;;;23.40;47.10;;;;;;5050889;28;20184;-86
2022/08/06 00:59:21;;;;;;;3.83;2.90;;;23.20;47.40;;;;;;5051912;28;20208;-87
2022/08/06 01:01:47;;;;;;;3.85;2.83;;;23.00;48.30;;;;;;5051076;28;20189;-87
2022/08/06 01:04:13;;;;;;;3.20;2.70;;;22.80;48.70;;;;;;5051675;28;20641;-87
2022/08/06 01:06:39;;;;;;;3.55;3.25;;;22.80;48.70;;;;;;5040153;28;20680;-87
2022/08/06 01:09:05;;;;;;;2.75;2.53;;;22.80;49.00;;;;;;5040393;28;20212;-88
2022/08/06 01:11:31;;;;;;;2.65;2.45;;;22.80;48.30;;;;;;5060069;28;20188;-87
2022/08/06 01:13:56;;;;;;;3.03;2.78;;;22.60;48.60;;;;;;5053126;28;20724;-87
2022/08/06 01:16:34;;;;;;;3.50;3.13;;;22.60;48.80;;;;;;5051093;28;20266;-86
2022/08/06 01:19:19;;;;;;;3.20;2.90;;;22.60;48.00;;;;;;5053235;28;20199;-87
2022/08/06 01:22:06;;;;;;;2.75;2.55;;;22.60;47.90;;;;;;5052993;28;20171;-87
2022/08/06 01:25:03;;;;;;;2.75;2.55;;;22.70;48.00;;;;;;5046138;28;20659;-87
2022/08/06 01:27:43;;;;;;;3.08;2.70;;;22.60;47.70;;;;;;5057707;28;20554;-86
2022/08/06 01:30:17;;;;;;;2.72;2.53;;;22.60;47.70;;;;;;5049572;28;20204;-87
2022/08/06 01:32:55;;;;;;;3.00;2.80;;;22.40;48.00;;;;;;5032374;28;20211;-87
2022/08/06 01:35:30;;;;;;;2.80;2.55;;;22.40;48.00;;;;;;5047945;28;20257;-87
2022/08/06 01:38:17;;;;;;;5.28;2.75;;;22.40;48.10;;;;;;5052420;28;20184;-87
2022/08/06 01:40:46;;;;;;;3.35;3.00;;;22.50;48.00;;;;;;5051123;28;20211;-86
2022/08/06 01:43:15;;;;;;;3.60;2.75;;;22.50;48.10;;;;;;5048988;28;20184;-86
2022/08/06 01:45:42;;;;;;;3.55;2.90;;;22.60;47.50;;;;;;5056409;28;20183;-87
2022/08/06 01:48:18;;;;;;;2.70;2.50;;;22.50;48.30;;;;;;5053638;28;20513;-86
2022/08/06 01:50:49;;;;;;;2.55;2.45;;;22.60;47.60;;;;;;5040746;28;20221;-88
2022/08/06 01:53:19;;;;;;;3.03;2.70;;;22.50;48.10;;;;;;5032745;28;20216;-87
2022/08/06 01:55:50;;;;;;;2.92;2.72;;;22.60;48.30;;;;;;5054975;28;20194;-87
2022/08/06 01:58:20;;;;;;;4.60;2.50;;;22.70;48.20;;;;;;5058886;28;20215;-86
2022/08/06 02:00:51;;;;;;;2.75;2.55;;;22.40;48.70;;;;;;5054188;28;20199;-87
2022/08/06 02:03:43;;;;;;;3.17;2.97;;;22.40;49.60;;;;;;5057031;28;20192;-87
2022/08/06 02:06:15;;;;;;;4.53;3.10;;;22.30;49.70;;;;;;5038197;28;20187;-87
2022/08/06 02:08:43;;;;;;;4.30;2.80;;;22.10;50.80;;;;;;5051707;28;20210;-87
2022/08/06 02:11:11;;;;;;;3.60;2.90;;;22.20;50.50;;;;;;5055736;28;20194;-87
2022/08/06 02:13:38;;;;;;;2.78;2.58;;;22.20;50.80;;;;;;5057420;28;20211;-87
2022/08/06 02:16:07;;;;;;;3.10;2.90;;;22.20;50.70;;;;;;5054092;28;20238;-87
2022/08/06 02:18:37;;;;;;;2.80;2.60;;;22.20;51.10;;;;;;5049978;28;20269;-87
2022/08/06 02:21:12;;;;;;;3.28;2.70;;;22.20;51.60;;;;;;5054469;28;20184;-87
2022/08/06 02:23:39;;;;;;;2.92;2.70;;;22.20;51.80;;;;;;5042360;28;20191;-87
2022/08/06 02:26:05;;;;;;;3.40;2.97;;;22.30;52.10;;;;;;5064058;28;20832;-88
2022/08/06 02:28:33;;;;;;;3.00;2.80;;;22.20;52.20;;;;;;5070806;28;20228;-88
2022/08/06 02:30:58;;;;;;;3.20;2.97;;;22.00;53.10;;;;;;5060881;28;20183;-86
2022/08/06 02:33:25;;;;;;;5.90;3.10;;;22.00;53.20;;;;;;5054538;28;20239;-87
2022/08/06 02:35:51;;;;;;;3.35;3.05;;;21.80;54.10;;;;;;5035853;28;20191;-88
2022/08/06 02:38:27;;;;;;;3.38;3.00;;;21.80;54.70;;;;;;5054547;28;20218;-88
2022/08/06 02:41:04;;;;;;;3.20;2.92;;;21.80;54.60;;;;;;5042146;28;20666;-87
2022/08/06 02:43:39;;;;;;;3.45;3.00;;;21.60;55.30;;;;;;5049356;28;20238;-88
2022/08/06 02:46:08;;;;;;;4.03;3.08;;;21.70;56.30;;;;;;5060634;28;20182;-87
2022/08/06 02:48:37;;;;;;;3.17;2.95;;;21.90;54.80;;;;;;5055211;28;20260;-88
2022/08/06 02:51:09;;;;;;;5.78;3.30;;;21.90;54.80;;;;;;5058980;28;20705;-88
2022/08/06 02:53:43;;;;;;;3.08;2.88;;;21.90;54.60;;;;;;5057810;28;20541;-87
2022/08/06 02:56:13;;;;;;;3.95;3.00;;;21.80;54.90;;;;;;5054056;28;20209;-87
2022/08/06 02:58:53;;;;;;;3.40;3.10;;;21.80;55.30;;;;;;5055434;28;20328;-87
2022/08/06 03:01:23;;;;;;;3.22;2.92;;;21.90;55.30;;;;;;5057537;28;20228;-87
2022/08/06 03:03:51;;;;;;;3.22;2.92;;;21.80;55.10;;;;;;5055712;28;20996;-87
2022/08/06 03:06:19;;;;;;;3.88;3.13;;;21.80;55.80;;;;;;5027834;28;20203;-86
2022/08/06 03:08:45;;;;;;;3.28;3.00;;;21.90;55.50;;;;;;5029674;28;20216;-86
2022/08/06 03:11:13;;;;;;;3.25;3.03;;;21.70;56.10;;;;;;5049493;28;20192;-86
2022/08/06 03:13:41;;;;;;;3.17;2.92;;;21.40;57.20;;;;;;5036946;28;20207;-87
2022/08/06 03:16:08;;;;;;;4.70;3.50;;;21.30;58.30;;;;;;5056082;28;20185;-86
2022/08/06 03:18:35;;;;;;;3.08;2.78;;;21.10;58.60;;;;;;5068753;28;20226;-88
2022/08/06 03:21:02;;;;;;;3.47;3.17;;;21.30;58.20;;;;;;5059857;28;20183;-87
2022/08/06 03:23:30;;;;;;;5.40;3.80;;;21.20;58.30;;;;;;5062614;28;20704;-87
2022/08/06 03:25:57;;;;;;;3.53;3.22;;;21.10;59.10;;;;;;5070540;28;20185;-87
2022/08/06 03:28:24;;;;;;;2.80;2.65;;;21.00;59.60;;;;;;5052179;28;20289;-87
2022/08/06 03:30:51;;;;;;;3.70;3.40;;;21.00;59.50;;;;;;5054620;28;20186;-87
2022/08/06 03:33:19;;;;;;;3.78;3.50;;;21.20;59.00;;;;;;5057563;28;20264;-87
2022/08/06 03:35:46;;;;;;;3.85;3.03;;;21.20;59.00;;;;;;5054895;28;20185;-88
2022/08/06 03:38:13;;;;;;;4.05;3.63;;;21.30;58.30;;;;;;5052832;28;20216;-87
2022/08/06 03:40:43;;;;;;;3.55;3.25;;;21.20;58.40;;;;;;5047635;28;20222;-87
2022/08/06 03:43:09;;;;;;;4.38;3.45;;;21.20;58.40;;;;;;5051484;28;20206;-87
2022/08/06 03:45:39;;;;;;;3.97;3.50;;;20.80;59.90;;;;;;5055567;28;20193;-86
2022/08/06 03:48:07;;;;;;;4.05;3.65;;;20.70;60.30;;;;;;5053063;28;20194;-87
2022/08/06 03:50:43;;;;;;;3.55;3.35;;;20.80;59.90;;;;;;5048013;28;20193;-86
2022/08/06 03:53:17;;;;;;;3.40;3.20;;;20.90;59.00;;;;;;5056614;28;20261;-87
2022/08/06 03:55:44;;;;;;;3.92;3.25;;;20.80;59.00;;;;;;5054136;28;20191;-87
2022/08/06 03:58:13;;;;;;;3.70;3.40;;;20.60;60.00;;;;;;5059627;28;20219;-87
2022/08/06 04:00:50;;;;;;;3.63;3.33;;;20.40;60.50;;;;;;5044569;28;20342;-86
2022/08/06 04:03:18;;;;;;;3.60;3.40;;;20.30;60.70;;;;;;5057988;28;20188;-87
2022/08/06 04:05:44;;;;;;;3.55;3.25;;;20.20;61.30;;;;;;5046399;28;20200;-87
2022/08/06 04:08:12;;;;;;;3.83;3.45;;;20.20;61.60;;;;;;5049288;28;20212;-87
2022/08/06 04:10:41;;;;;;;4.22;3.47;;;20.20;61.40;;;;;;5050713;28;20189;-86
2022/08/06 04:13:11;;;;;;;4.13;3.20;;;20.20;61.10;;;;;;5044153;28;20216;-86
2022/08/06 04:15:38;;;;;;;3.63;3.20;;;20.00;62.00;;;;;;5060926;28;20195;-86
2022/08/06 04:18:08;;;;;;;3.33;3.00;;;20.10;61.70;;;;;;5064906;28;20192;-87
2022/08/06 04:20:35;;;;;;;3.40;3.08;;;20.10;61.20;;;;;;5064593;28;20235;-87
2022/08/06 04:23:01;;;;;;;4.30;3.22;;;20.20;61.20;;;;;;5061450;28;20676;-87
2022/08/06 04:25:34;;;;;;;5.50;3.30;;;20.10;61.60;;;;;;5053205;28;20230;-87
2022/08/06 04:28:02;;;;;;;4.22;3.17;;;19.90;62.10;;;;;;5052626;28;20187;-86
2022/08/06 04:30:28;;;;;;;4.25;3.70;;;19.70;62.80;;;;;;5057572;28;20211;-87
2022/08/06 04:32:54;;;;;;;3.30;3.00;;;19.80;62.60;;;;;;5045520;28;20208;-87
2022/08/06 04:35:21;;;;;;;3.25;2.95;;;19.80;62.40;;;;;;5047864;28;20184;-87
2022/08/06 04:37:48;;;;;;;3.75;3.22;;;19.90;62.60;;;;;;5047198;28;20758;-86
2022/08/06 04:40:14;;;;;;;3.20;2.90;;;20.00;60.80;;;;;;5053175;28;20299;-87
2022/08/06 04:42:40;;;;;;;3.67;2.92;;;19.80;61.10;;;;;;5055248;28;20188;-87
2022/08/06 04:45:08;;;;;;;3.75;2.97;;;19.70;62.00;;;;;;5035828;28;20196;-86
2022/08/06 04:47:35;;;;;;;3.28;2.95;;;19.60;62.10;;;;;;5053996;28;20183;-87
2022/08/06 04:50:02;;;;;;;3.58;3.15;;;19.50;62.20;;;;;;5059594;28;20223;-88
2022/08/06 04:52:28;;;;;;;3.28;3.08;;;19.50;62.30;;;;;;5060765;28;20228;-87
2022/08/06 04:54:54;;;;;;;4.18;3.03;;;19.50;62.50;;;;;;5054110;28;20211;-87
2022/08/06 04:57:20;;;;;;;3.92;3.10;;;19.50;62.30;;;;;;5055529;28;20184;-86
2022/08/06 04:59:46;;;;;;;4.30;2.78;;;19.60;62.10;;;;;;5035258;28;20715;-88
2022/08/06 05:02:12;;;;;;;3.40;3.10;;;19.40;62.50;;;;;;5053857;28;20188;-86
2022/08/06 05:04:39;;;;;;;2.88;2.53;;;19.50;62.10;;;;;;5049445;28;20714;-86
2022/08/06 05:07:15;;;;;;;3.40;3.10;;;19.70;60.80;;;;;;5047043;28;20195;-86
2022/08/06 05:09:41;;;;;;;3.95;2.85;;;19.80;60.80;;;;;;5050209;28;20211;-87
2022/08/06 05:12:31;;;;;;;3.50;3.20;;;19.90;59.80;;;;;;5052111;28;20184;-88
2022/08/06 05:15:16;;;;;;;3.53;2.83;;;20.00;59.30;;;;;;5052667;28;20436;-87
2022/08/06 05:18:03;;;;;;;3.03;2.80;;;20.10;59.10;;;;;;5057073;28;20188;-87
2022/08/06 05:20:42;;;;;;;3.60;3.30;;;20.00;59.10;;;;;;5059264;28;20207;-87
2022/08/06 05:23:16;;;;;;;2.90;2.70;;;19.90;60.20;;;;;;5049566;28;20240;-88
2022/08/06 05:25:42;;;;;;;3.00;2.70;;;19.80;60.20;;;;;;5042667;28;20199;-86
2022/08/06 05:28:08;;;;;;;4.82;3.00;;;20.00;60.10;;;;;;5056727;28;20653;-86
2022/08/06 05:30:45;;;;;;;3.65;3.05;;;20.10;59.70;;;;;;5060918;28;20285;-87
2022/08/06 05:33:12;;;;;;;3.00;2.75;;;20.30;59.60;;;;;;5037262;28;20227;-87
2022/08/06 05:35:37;;;;;;;4.22;3.00;;;20.20;58.60;;;;;;5049769;28;20192;-87
2022/08/06 05:38:03;;;;;;;2.90;2.60;;;20.10;59.40;;;;;;5053716;28;20261;-87
2022/08/06 05:40:33;;;;;;;3.45;3.05;;;20.20;59.80;;;;;;5049905;28;20192;-87
2022/08/06 05:43:02;;;;;;;6.93;3.17;;;20.30;58.80;;;;;;5018337;28;20195;-87
2022/08/06 05:45:28;;;;;;;3.00;2.80;;;20.20;59.00;;;;;;5036772;28;20203;-87
2022/08/06 05:47:57;;;;;;;2.97;2.72;;;20.20;59.00;;;;;;5060430;28;20200;-87
2022/08/06 05:50:29;;;;;;;3.53;2.85;;;20.10;59.20;;;;;;5056616;28;20200;-85
2022/08/06 05:53:01;;;;;;;5.00;2.80;;;20.00;60.10;;;;;;5055830;28;20774;-86
2022/08/06 05:55:43;;;;;;;4.13;2.97;;;20.00;60.10;;;;;;5036856;28;20196;-85
2022/08/06 05:58:20;;;;;;;3.05;2.75;;;20.00;60.00;;;;;;5035959;28;20673;-88
2022/08/06 06:00:46;;;;;;;3.50;3.00;;;20.00;58.80;;;;;;5056399;28;20253;-87
2022/08/06 06:03:15;;;;;;;3.78;2.80;;;19.80;59.90;;;;;;5055313;28;20192;-85
2022/08/06 06:05:42;;;;;;;2.85;2.65;;;19.80;59.80;;;;;;5039907;28;20467;-88
2022/08/06 06:08:09;;;;;;;3.10;2.80;;;19.70;60.20;;;;;;5057337;28;20181;-88
2022/08/06 06:10:36;;;;;;;3.10;2.75;;;19.70;60.20;;;;;;5042713;28;20222;-87
2022/08/06 06:13:03;;;;;;;3.30;3.00;;;19.80;59.80;;;;;;5058748;28;20701;-88
2022/08/06 06:15:29;;;;;;;5.40;2.95;;;19.90;59.60;;;;;;5056495;28;20204;-88
2022/08/06 06:18:13;;;;;;;3.75;2.45;;;19.90;59.70;;;;;;5042109;28;20242;-88
2022/08/06 06:21:00;;;;;;;3.13;2.60;;;19.90;59.20;;;;;;5053115;28;20172;-86
2022/08/06 06:23:49;;;;;;;2.97;2.67;;;20.00;58.50;;;;;;5053683;28;20188;-87
2022/08/06 06:26:40;;;;;;;3.78;2.70;;;20.20;56.90;;;;;;5057660;28;20189;-89
2022/08/06 06:29:40;;;;;;;2.92;2.72;;;20.30;56.90;;;;;;5057097;28;20200;-87
2022/08/06 06:32:44;;;;;;;4.10;2.88;;;20.40;56.30;;;;;;5059662;28;20898;-88
2022/08/06 06:35:15;;;;;;;3.08;2.88;;;20.50;55.30;;;;;;5052410;28;20212;-87
2022/08/06 06:37:53;;;;;;;3.47;2.90;;;20.60;54.90;;;;;;5061326;28;20215;-88
2022/08/06 06:40:32;;;;;;;3.00;2.70;;;20.60;55.20;;;;;;5053466;28;20185;-87
2022/08/06 06:43:04;;;;;;;3.00;2.70;;;20.60;54.80;;;;;;5046568;28;20184;-87
2022/08/06 06:45:29;;;;;;;3.00;2.80;;;20.30;56.00;;;;;;5029466;28;20181;-87
2022/08/06 06:47:59;;;;;;;3.05;2.60;;;20.40;56.50;;;;;;5051639;28;20182;-86
2022/08/06 06:50:30;;;;;;;2.90;2.70;;;20.20;56.60;;;;;;5036767;28;20193;-87
2022/08/06 06:52:56;;;;;;;3.65;2.80;;;20.20;56.60;;;;;;5048012;28;20215;-86
2022/08/06 06:55:32;;;;;;;4.00;3.05;;;20.20;56.70;;;;;;5042661;28;20188;-87
2022/08/06 06:58:14;;;;;;;2.55;2.42;;;20.30;56.30;;;;;;5054723;28;20204;-88
2022/08/06 07:00:42;;;;;;;4.45;2.80;;;20.40;56.50;;;;;;5050877;28;20177;-88
2022/08/06 07:03:09;;;;;;;4.55;2.72;;;20.60;55.90;;;;;;5056442;28;20210;-87
2022/08/06 07:05:38;;;;;;;3.95;2.97;;;20.80;55.60;;;;;;5059754;28;20188;-87
2022/08/06 07:08:05;;;;;;;3.60;3.00;;;20.90;55.60;;;;;;5056663;28;20257;-86
2022/08/06 07:10:32;;;;;;;3.55;2.78;;;21.00;55.10;;;;;;5060205;28;20192;-86
2022/08/06 07:12:59;;;;;;;3.30;3.00;;;20.90;55.20;;;;;;5047474;28;20236;-86
2022/08/06 07:15:26;;;;;;;3.00;2.80;;;20.90;55.50;;;;;;5064630;28;20181;-87
2022/08/06 07:17:53;;;;;;;3.13;2.90;;;21.00;55.70;;;;;;5033963;28;20189;-87
2022/08/06 07:20:27;;;;;;;4.03;3.20;;;21.10;55.10;;;;;;5061988;28;20188;-89
2022/08/06 07:22:54;;;;;;;3.35;3.03;;;21.10;55.40;;;;;;5055520;28;20189;-87
2022/08/06 07:25:21;;;;;;;3.92;3.20;;;21.20;55.20;;;;;;5038816;28;20193;-89
2022/08/06 07:27:49;;;;;;;3.38;3.08;;;21.50;55.10;;;;;;5047456;28;20887;-88
2022/08/06 07:30:18;;;;;;;3.42;3.13;;;21.70;54.10;;;;;;5057527;28;20237;-88
2022/08/06 07:32:46;;;;;;;3.20;2.90;;;22.00;53.40;;;;;;5042013;28;20794;-88
2022/08/06 07:35:13;;;;;;;3.53;3.22;;;22.10;53.10;;;;;;5051130;28;20230;-89
2022/08/06 07:37:44;;;;;;;4.18;2.92;;;22.20;51.80;;;;;;5059897;28;20199;-88
2022/08/06 07:40:22;;;;;;;3.42;3.13;;;22.20;51.90;;;;;;5068167;28;20191;-91
2022/08/06 07:42:55;;;;;;;3.35;3.05;;;22.30;51.30;;;;;;5050508;28;20200;-88
2022/08/06 07:45:24;;;;;;;2.92;2.72;;;22.10;51.90;;;;;;5041141;28;20161;-87
2022/08/06 07:47:51;;;;;;;4.35;3.03;;;22.30;51.90;;;;;;5074565;28;20252;-88
2022/08/06 07:50:18;;;;;;;3.10;2.90;;;22.30;49.90;;;;;;5058019;28;20227;-88
2022/08/06 07:52:44;;;;;;;3.60;3.00;;;22.40;48.90;;;;;;5040442;28;20210;-87
2022/08/06 07:55:12;;;;;;;3.03;2.80;;;22.20;49.10;;;;;;5068668;28;20192;-88
2022/08/06 07:57:40;;;;;;;3.53;2.83;;;22.20;49.40;;;;;;5069358;28;20194;-87
2022/08/06 08:00:09;;;;;;;3.17;2.90;;;22.40;48.60;;;;;;5065058;28;20192;-88
2022/08/06 08:02:38;;;;;;;3.30;3.00;;;22.20;48.30;;;;;;5048455;28;20179;-89
2022/08/06 08:08:01;;;;;;;3.58;3.03;;;22.40;46.00;;;;;;5057835;28;20198;-89
2022/08/06 08:10:27;;;;;;;4.15;3.28;;;22.40;46.20;;;;;;5060342;28;20186;-89
2022/08/06 08:12:53;;;;;;;5.15;3.03;;;22.50;46.60;;;;;;5044301;28;20221;-86
2022/08/06 08:15:20;;;;;;;3.15;2.90;;;22.60;46.90;;;;;;5073254;28;20545;-88
2022/08/06 08:17:45;;;;;;;5.60;3.30;;;22.80;45.90;;;;;;5067142;28;20197;-85
2022/08/06 08:20:13;;;;;;;3.38;3.08;;;22.80;45.80;;;;;;5059922;28;20208;-85
2022/08/06 08:22:39;;;;;;;3.47;3.00;;;22.90;45.20;;;;;;5057500;28;20184;-85
2022/08/06 08:25:05;;;;;;;3.03;2.80;;;23.00;44.30;;;;;;5047809;28;20204;-85
2022/08/06 08:27:31;;;;;;;2.72;2.50;;;23.00;43.50;;;;;;5053731;28;20264;-85
2022/08/06 08:29:58;;;;;;;2.92;2.40;;;23.10;41.10;;;;;;5052791;28;20235;-87
2022/08/06 08:32:24;;;;;;;3.85;3.00;;;23.10;41.20;;;;;;5050228;28;20209;-86
2022/08/06 08:34:49;;;;;;;3.20;2.90;;;23.20;41.30;;;;;;5037040;28;20279;-86
2022/08/06 08:37:16;;;;;;;3.10;2.80;;;23.30;41.20;;;;;;5037241;28;20867;-87
2022/08/06 08:39:41;;;;;;;3.47;2.63;;;23.20;42.00;;;;;;5050442;28;20868;-87
2022/08/06 08:42:17;;;;;;;3.38;3.08;;;23.40;41.00;;;;;;5054437;28;20190;-87
2022/08/06 08:44:44;;;;;;;3.30;3.00;;;23.60;40.30;;;;;;5021829;28;20210;-87
2022/08/06 08:47:13;;;;;;;3.13;2.80;;;23.70;40.30;;;;;;5046081;28;20200;-87
2022/08/06 08:49:40;;;;;;;3.20;2.90;;;23.80;39.80;;;;;;5052778;28;20206;-86
2022/08/06 08:52:14;;;;;;;5.65;3.05;;;23.30;40.00;;;;;;5050634;28;20282;-86
2022/08/06 08:54:48;;;;;;;2.75;2.55;;;23.60;40.50;;;;;;5054143;28;20254;-86
2022/08/06 08:57:16;;;;;;;2.97;2.70;;;23.80;39.50;;;;;;5053747;28;20181;-87
2022/08/06 08:59:42;;;;;;;3.25;2.83;;;24.10;39.40;;;;;;5032473;28;20463;-86
2022/08/06 09:02:12;;;;;;;5.20;2.83;;;24.10;39.40;;;;;;5043574;28;20184;-87
2022/08/06 09:04:38;;;;;;;4.03;3.00;;;24.30;38.80;;;;;;5055506;28;20250;-87
2022/08/06 09:07:07;;;;;;;4.07;3.17;;;24.30;36.30;;;;;;5045581;28;20197;-86
2022/08/06 09:09:34;;;;;;;3.63;2.83;;;24.40;39.00;;;;;;5038603;28;20224;-86
2022/08/06 09:12:01;;;;;;;3.08;2.80;;;24.00;40.20;;;;;;5055445;28;20203;-87
2022/08/06 09:14:27;;;;;;;3.08;2.70;;;24.10;40.00;;;;;;5057029;28;20183;-86
2022/08/06 09:16:53;;;;;;;2.83;2.70;;;24.30;38.50;;;;;;5050242;28;20231;-86
2022/08/06 09:19:19;;;;;;;2.90;2.70;;;24.80;36.10;;;;;;5015554;28;20287;-87
2022/08/06 09:21:45;;;;;;;4.55;2.97;;;24.80;37.40;;;;;;5057079;28;20204;-87
2022/08/06 09:24:11;;;;;;;3.55;2.92;;;25.00;38.80;;;;;;5049854;28;20223;-87
2022/08/06 09:26:39;;;;;;;3.00;2.80;;;25.10;37.90;;;;;;5047303;28;20185;-87
2022/08/06 09:29:20;;;;;;;3.13;2.90;;;25.20;38.10;;;;;;5049003;28;20204;-88
2022/08/06 09:31:46;;;;;;;2.95;2.75;;;25.00;37.50;;;;;;5057058;28;20243;-87
2022/08/06 09:34:12;;;;;;;3.03;2.83;;;25.00;38.00;;;;;;5032829;28;20246;-88
2022/08/06 09:36:45;;;;;;;3.67;3.10;;;25.20;36.80;;;;;;5053541;28;20188;-86
2022/08/06 09:39:12;;;;;;;3.60;2.75;;;25.30;37.40;;;;;;5020754;28;20241;-88
2022/08/06 09:41:49;;;;;;;4.55;3.00;;;25.50;36.90;;;;;;5058884;28;20185;-88
2022/08/06 09:44:15;;;;;;;2.95;2.75;;;25.40;36.30;;;;;;5046436;28;20612;-88
2022/08/06 09:46:42;;;;;;;3.08;2.88;;;25.20;36.60;;;;;;5044259;28;20193;-88
2022/08/06 09:49:10;;;;;;;2.95;2.75;;;25.40;37.30;;;;;;5059284;28;20203;-86
2022/08/06 09:51:37;;;;;;;3.55;3.00;;;25.30;36.30;;;;;;5034845;28;20247;-87
2022/08/06 09:54:05;;;;;;;3.20;2.90;;;25.30;36.90;;;;;;5052985;28;20216;-87
2022/08/06 09:56:32;;;;;;;6.78;3.58;;;25.80;36.40;;;;;;5042388;28;20191;-88
2022/08/06 09:59:04;;;;;;;2.88;2.60;;;25.80;35.30;;;;;;5063527;28;20204;-88
2022/08/06 10:01:38;;;;;;;2.72;2.50;;;25.80;35.10;;;;;;5024936;28;20192;-87
2022/08/06 10:04:04;;;;;;;3.70;2.67;;;25.60;35.40;;;;;;5032871;28;20188;-88
2022/08/06 10:06:30;;;;;;;3.47;2.90;;;25.80;34.20;;;;;;5043497;28;20210;-87
2022/08/06 10:09:12;;;;;;;2.95;2.75;;;25.90;33.40;;;;;;5019369;28;20209;-88
2022/08/06 10:11:41;;;;;;;2.80;2.50;;;26.20;32.70;;;;;;5060437;28;20207;-88
2022/08/06 10:14:27;;;;;;;3.40;3.10;;;26.00;32.90;;;;;;5030490;28;20208;-86
2022/08/06 10:17:03;;;;;;;3.08;2.88;;;25.80;33.10;;;;;;5065166;28;20208;-88
2022/08/06 10:19:30;;;;;;;2.42;2.33;;;26.20;33.70;;;;;;5049073;28;20226;-87
2022/08/06 10:22:07;;;;;;;2.83;2.60;;;26.30;32.30;;;;;;5061898;28;20177;-88
2022/08/06 10:24:48;;;;;;;2.63;2.53;;;26.00;32.70;;;;;;5046954;28;20192;-89
2022/08/06 10:27:20;;;;;;;2.70;2.50;;;26.50;32.10;;;;;;5051744;28;20187;-88
2022/08/06 10:29:54;;;;;;;2.78;2.53;;;27.00;31.00;;;;;;5037816;28;20238;-88
2022/08/06 10:32:33;;;;;;;2.45;2.35;;;27.30;30.70;;;;;;5054684;28;20214;-88
2022/08/06 10:35:03;;;;;;;3.00;2.80;;;27.30;30.00;;;;;;5066814;28;20238;-88
2022/08/06 10:37:33;;;;;;;2.80;2.58;;;27.50;29.90;;;;;;5044596;28;20184;-88
2022/08/06 10:40:11;;;;;;;2.70;2.50;;;27.40;30.20;;;;;;5055104;28;20216;-88
2022/08/06 10:42:38;;;;;;;2.72;2.53;;;27.40;29.80;;;;;;5041311;28;20657;-89
2022/08/06 10:45:05;;;;;;;6.05;2.65;;;27.30;30.20;;;;;;5060144;28;20181;-88
2022/08/06 10:47:33;;;;;;;4.03;2.90;;;27.70;29.40;;;;;;5065319;28;20684;-87
2022/08/06 10:50:00;;;;;;;2.90;2.70;;;27.80;29.30;;;;;;5053687;28;20213;-85
2022/08/06 10:52:26;;;;;;;3.50;3.22;;;27.90;29.50;;;;;;5056302;28;20313;-83
2022/08/06 10:54:53;;;;;;;2.70;2.60;;;28.20;29.40;;;;;;5059765;28;20196;-84
2022/08/06 10:57:19;;;;;;;3.58;2.72;;;28.40;29.20;;;;;;5067708;28;20180;-84
2022/08/06 10:59:47;;;;;;;2.60;2.50;;;28.50;28.60;;;;;;5060922;28;20241;-84
2022/08/06 11:02:28;;;;;;;2.75;2.55;;;28.40;28.50;;;;;;5053165;28;20178;-84
2022/08/06 11:05:05;;;;;;;3.15;2.85;;;28.50;28.40;;;;;;5064467;28;20169;-83
2022/08/06 11:07:46;;;;;;;3.65;3.35;;;28.30;28.30;;;;;;5060334;28;20191;-83
2022/08/06 11:10:30;;;;;;;14.55;13.30;;;28.50;27.90;;;;;;5062148;28;20196;-85
2022/08/06 11:13:17;;;;;;;2.60;2.50;;;28.90;27.20;;;;;;5062440;28;20211;-84
2022/08/06 11:15:43;;;;;;;2.80;2.60;;;29.20;28.00;;;;;;5063734;28;20168;-84
2022/08/06 11:18:11;;;;;;;3.72;2.80;;;29.10;26.90;;;;;;5046560;28;20275;-84
2022/08/06 11:20:46;;;;;;;3.10;2.90;;;29.10;27.30;;;;;;5031059;28;20185;-85
2022/08/06 11:23:11;;;;;;;2.95;2.70;;;29.20;27.10;;;;;;5037527;28;20210;-84
2022/08/06 11:25:54;;;;;;;2.92;2.72;;;29.50;27.50;;;;;;5057449;28;20196;-84
2022/08/06 11:28:29;;;;;;;2.78;2.65;;;29.50;27.00;;;;;;5060059;28;20204;-84
2022/08/06 11:30:57;;;;;;;3.22;2.78;;;29.20;26.90;;;;;;5060753;28;20187;-83
2022/08/06 11:33:35;;;;;;;3.08;2.80;;;29.30;27.00;;;;;;5045385;28;20212;-84
2022/08/06 11:36:09;;;;;;;3.00;2.80;;;29.30;26.50;;;;;;5064561;28;20176;-84
2022/08/06 11:38:47;;;;;;;3.17;2.65;;;29.20;26.60;;;;;;5046177;28;20192;-84
2022/08/06 11:41:32;;;;;;;2.60;2.50;;;29.60;26.60;;;;;;5057604;28;20240;-83
2022/08/06 11:43:58;;;;;;;4.20;2.70;;;29.50;26.40;;;;;;5044893;28;20196;-84
2022/08/06 11:46:27;;;;;;;3.00;2.80;;;29.80;26.00;;;;;;5039146;28;20205;-84
2022/08/06 11:48:59;;;;;;;2.65;2.45;;;29.90;25.60;;;;;;5040976;28;20293;-83
2022/08/06 11:51:52;;;;;;;3.55;3.25;;;30.00;25.80;;;;;;5059214;28;20188;-82
2022/08/06 11:54:28;;;;;;;3.30;3.00;;;29.90;25.60;;;;;;5045188;28;20349;-82
2022/08/06 11:57:01;;;;;;;3.55;2.80;;;29.70;26.00;;;;;;5042192;28;20184;-84
2022/08/06 11:59:42;;;;;;;4.03;3.60;;;29.50;25.80;;;;;;5062522;28;20200;-84
2022/08/06 12:02:09;;;;;;;2.90;2.70;;;29.20;26.80;;;;;;5054109;28;20196;-86
2022/08/06 12:04:35;;;;;;;3.00;2.80;;;29.30;26.10;;;;;;5053587;28;20188;-87
2022/08/06 12:07:21;;;;;;;2.67;2.58;;;29.20;26.50;;;;;;5062351;28;20184;-86
2022/08/06 12:09:59;;;;;;;2.67;2.47;;;29.20;26.90;;;;;;5045376;28;20208;-85
2022/08/06 12:12:28;;;;;;;2.80;2.60;;;29.20;26.30;;;;;;5043567;28;20632;-87
2022/08/06 12:14:58;;;;;;;2.92;2.72;;;29.20;26.40;;;;;;5051177;28;20187;-87
2022/08/06 12:17:26;;;;;;;3.00;2.80;;;29.10;26.60;;;;;;5050320;28;20173;-87
2022/08/06 12:19:54;;;;;;;2.80;2.60;;;29.20;26.60;;;;;;5049148;28;20568;-87
2022/08/06 12:22:22;;;;;;;3.13;2.92;;;29.70;26.20;;;;;;5049520;28;20219;-88
2022/08/06 12:24:54;;;;;;;3.80;3.50;;;30.00;26.20;;;;;;5040696;28;20204;-87
2022/08/06 12:27:23;;;;;;;3.33;3.03;;;30.20;25.60;;;;;;5047430;28;20222;-87
2022/08/06 12:29:56;;;;;;;2.85;2.65;;;30.20;25.20;;;;;;5042123;28;20201;-87
2022/08/06 12:32:24;;;;;;;3.45;3.15;;;30.20;25.20;;;;;;5047684;28;20180;-87
2022/08/06 12:34:52;;;;;;;3.08;2.65;;;30.20;24.90;;;;;;5045581;28;20990;-86
2022/08/06 12:37:18;;;;;;;3.28;3.05;;;30.30;25.00;;;;;;5043276;28;20189;-86
2022/08/06 12:42:29;;;;;;;3.30;3.00;;;30.90;24.80;;;;;;5044786;28;20211;-88
2022/08/06 12:44:55;;;;;;;5.13;2.90;;;30.90;25.20;;;;;;5046947;28;20280;-88
2022/08/06 12:47:22;;;;;;;3.00;2.80;;;30.70;25.00;;;;;;5048926;28;20234;-88
2022/08/06 12:49:48;;;;;;;2.80;2.70;;;30.70;24.90;;;;;;5049363;28;20211;-86
2022/08/06 12:52:22;;;;;;;3.00;2.80;;;31.10;24.60;;;;;;5045020;28;20196;-86
2022/08/06 12:54:49;;;;;;;5.30;2.70;;;30.80;24.30;;;;;;5032012;28;20282;-89
2022/08/06 12:57:28;;;;;;;3.33;3.13;;;31.00;24.90;;;;;;5057859;28;20184;-89
2022/08/06 12:59:55;;;;;;;3.30;3.10;;;31.30;24.60;;;;;;5058724;28;20199;-88
2022/08/06 13:02:23;;;;;;;3.30;3.00;;;31.40;24.30;;;;;;5057321;28;20192;-89
2022/08/06 13:04:54;;;;;;;3.15;2.85;;;30.90;24.60;;;;;;5020973;28;20184;-86
2022/08/06 13:07:21;;;;;;;3.30;3.00;;;31.20;24.70;;;;;;5036679;28;20193;-89
2022/08/06 13:09:52;;;;;;;4.28;2.85;;;31.70;24.00;;;;;;5056582;28;20211;-89